Bassano, Canada
Current Conditions -  °F | °C
As of 10:00 PM on Friday 28 Nov 2014 (Local Time) from CYYC Reporting Station
Light Snow Light Snow  
Wind Chill: -35°   Ceiling: 800
Heat Index: -9°   Visibility: 1.5mi
Dew Point: -17°   Wind: 21mph
Humidity: 71%   Direction: 350°N
Pressure: 29.68"   Gusts: NA
Location:  50.78°N, 112.47°W
Report Text: CYYC 290500Z 35018KT 1 1/2SM R11/5500VP6000FT/N -SN BLSN VV008 M23/M27 A2968 RMK SN8 SLP157
Loading
Personal Weather Stations






























Interactive Weather Map New forecast layout! Learn more

10-Day Weather Forecast

Advertisements
Track Severe Weather on mobile